Time;durP1;ratioP1;P1;durP2;ratioP2;P2;SDS_P1;SDS_P2;PMS_P1;PMS_P2;Temp;Humidity;BMP_temperature;BMP_pressure;BME280_temperature;BME280_humidity;BME280_pressure;Samples;Min_cycle;Max_cycle;Signal;HPM_P1;HPM_P2
2021/10/22 00:01:48;;;;;;;15.50;8.60;;;;;;;15.12;46.99;99495.72;1781231;78;21155;-58
2021/10/22 00:04:15;;;;;;;12.43;7.87;;;;;;;15.11;47.02;99500.17;1775802;78;21562;-59
2021/10/22 00:06:41;;;;;;;15.45;6.95;;;;;;;15.11;47.17;99509.44;1779063;79;21028;-58
2021/10/22 00:09:08;;;;;;;12.53;7.83;;;;;;;15.10;47.23;99506.48;1785806;78;21064;-58
2021/10/22 00:11:35;;;;;;;13.18;7.90;;;;;;;15.11;47.34;99505.98;1782821;78;21071;-58
2021/10/22 00:14:03;;;;;;;11.20;7.47;;;;;;;15.12;47.35;99505.80;1745954;80;21486;-58
2021/10/22 00:16:30;;;;;;;14.75;7.05;;;;;;;15.13;47.39;99506.63;1701281;82;21070;-58
2021/10/22 00:18:56;;;;;;;13.32;7.10;;;;;;;15.15;47.44;99512.59;1716438;81;21565;-58
2021/10/22 00:21:22;;;;;;;12.60;7.08;;;;;;;15.16;47.47;99513.75;1741315;80;21087;-58
2021/10/22 00:23:49;;;;;;;12.90;6.95;;;;;;;15.17;47.60;99507.44;1730522;80;21086;-58
2021/10/22 00:26:16;;;;;;;9.93;6.28;;;;;;;15.18;47.65;99505.13;1703685;82;21062;-59
2021/10/22 00:28:43;;;;;;;10.32;7.00;;;;;;;15.18;47.74;99501.62;1702769;82;21039;-57
2021/10/22 00:31:09;;;;;;;11.90;7.58;;;;;;;15.20;47.82;99495.67;1733706;81;21492;-58
2021/10/22 00:33:38;;;;;;;12.95;7.33;;;;;;;15.20;47.88;99503.63;1703839;82;21481;-58
2021/10/22 00:36:07;;;;;;;10.23;6.58;;;;;;;15.22;47.87;99494.99;1729244;80;21083;-58
2021/10/22 00:38:35;;;;;;;12.95;7.03;;;;;;;15.24;47.86;99496.96;1672363;82;21854;-58
2021/10/22 00:41:02;;;;;;;14.30;6.42;;;;;;;15.25;47.91;99486.70;1728899;80;21047;-58
2021/10/22 00:43:31;;;;;;;11.33;6.20;;;;;;;15.26;47.90;99483.03;1697666;80;21654;-59
2021/10/22 00:45:56;;;;;;;12.75;6.28;;;;;;;15.27;47.89;99477.25;1734313;82;21063;-58
2021/10/22 00:48:23;;;;;;;11.68;6.70;;;;;;;15.28;47.95;99474.43;1729112;80;21775;-59
2021/10/22 00:50:56;;;;;;;11.28;6.37;;;;;;;15.29;47.96;99477.89;1726227;81;21184;-58
2021/10/22 00:53:24;;;;;;;14.15;6.05;;;;;;;15.28;47.99;99481.05;1728127;80;21032;-59
2021/10/22 00:55:51;;;;;;;15.83;6.65;;;;;;;15.29;48.05;99477.38;1727951;80;21047;-59
2021/10/22 00:58:18;;;;;;;12.88;6.28;;;;;;;15.29;48.10;99481.36;1736870;82;21035;-57
2021/10/22 01:00:44;;;;;;;9.75;5.80;;;;;;;15.29;48.29;99480.03;1728681;80;21606;-57
2021/10/22 01:03:11;;;;;;;9.95;5.55;;;;;;;15.30;48.33;99489.65;1698954;82;21191;-58
2021/10/22 01:05:39;;;;;;;11.00;5.50;;;;;;;15.32;48.45;99489.47;1697751;82;21067;-58
2021/10/22 01:08:06;;;;;;;9.38;5.62;;;;;;;15.33;48.46;99488.45;1716067;81;22169;-57
2021/10/22 01:10:33;;;;;;;10.78;5.95;;;;;;;15.35;48.45;99483.83;1733223;80;21127;-57
2021/10/22 01:13:00;;;;;;;11.10;5.83;;;;;;;15.35;48.51;99483.31;1706212;82;21063;-58
2021/10/22 01:15:26;;;;;;;10.88;5.00;;;;;;;15.39;48.52;99483.78;1724944;80;22381;-57
2021/10/22 01:17:53;;;;;;;9.95;5.47;;;;;;;15.40;48.50;99488.91;1729854;82;21765;-57
2021/10/22 01:20:22;;;;;;;14.65;4.78;;;;;;;15.45;48.45;99499.00;1732675;80;21134;-58
2021/10/22 01:22:51;;;;;;;9.70;4.72;;;;;;;15.50;48.42;99501.09;1730719;80;21008;-58
2021/10/22 01:25:20;;;;;;;7.70;4.03;;;;;;;15.55;48.37;99507.54;1730817;80;21071;-58
2021/10/22 01:27:46;;;;;;;9.08;4.47;;;;;;;15.59;48.22;99511.98;1733833;80;21591;-58
2021/10/22 01:30:15;;;;;;;8.20;3.92;;;;;;;15.63;48.20;99514.59;1733042;80;21122;-57
2021/10/22 01:32:44;;;;;;;7.35;3.60;;;;;;;15.68;48.13;99524.68;1730659;80;21051;-58
2021/10/22 01:35:11;;;;;;;8.13;3.65;;;;;;;15.74;48.00;99523.47;1735884;81;21067;-58
2021/10/22 01:37:38;;;;;;;8.28;3.30;;;;;;;15.78;47.94;99522.16;1734083;82;21078;-58
2021/10/22 01:40:06;;;;;;;7.75;3.77;;;;;;;15.82;47.96;99526.61;1726714;82;21111;-58
2021/10/22 01:42:35;;;;;;;8.68;3.45;;;;;;;15.84;47.81;99526.43;1730735;80;21047;-58
2021/10/22 01:45:01;;;;;;;7.17;3.30;;;;;;;15.88;47.78;99537.81;1735275;80;21011;-58
2021/10/22 01:47:28;;;;;;;7.92;3.35;;;;;;;15.92;47.59;99540.45;1737851;80;20986;-58
2021/10/22 01:49:54;;;;;;;6.60;3.77;;;;;;;15.96;47.36;99542.23;1724797;81;21039;-58
2021/10/22 01:52:20;;;;;;;5.28;3.52;;;;;;;16.00;47.22;99547.50;1724176;81;21084;-58
2021/10/22 01:54:47;;;;;;;6.12;3.35;;;;;;;16.06;47.05;99541.48;1745460;80;21017;-58
2021/10/22 01:57:15;;;;;;;6.37;3.00;;;;;;;16.12;46.99;99548.74;1749689;80;21073;-58
2021/10/22 02:06:39;;;;;;;6.10;2.75;;;;;;;16.34;46.30;99551.02;1756736;79;21391;-58
2021/10/22 02:09:06;;;;;;;6.20;3.37;;;;;;;16.37;46.17;99560.44;1743512;80;21100;-59
2021/10/22 02:11:33;;;;;;;7.58;3.20;;;;;;;16.38;46.00;99569.25;1738471;79;21079;-59
2021/10/22 02:14:00;;;;;;;7.17;3.30;;;;;;;16.39;46.05;99565.09;1760017;79;21043;-58
2021/10/22 02:16:28;;;;;;;6.10;3.00;;;;;;;16.39;46.02;99564.25;1734213;79;21113;-58
2021/10/22 02:18:54;;;;;;;5.90;3.05;;;;;;;16.41;45.94;99566.21;1752837;80;21079;-59
2021/10/22 02:21:21;;;;;;;9.40;3.37;;;;;;;16.41;45.78;99581.66;1746545;80;21148;-58
2021/10/22 02:23:47;;;;;;;6.00;3.15;;;;;;;16.42;45.65;99575.33;1727487;80;21067;-58
2021/10/22 02:26:14;;;;;;;10.58;3.72;;;;;;;16.42;45.83;99577.98;1739329;80;21086;-59
2021/10/22 02:28:40;;;;;;;7.05;3.35;;;;;;;16.42;45.77;99577.98;1690051;82;21103;-59
2021/10/22 02:31:07;;;;;;;10.55;2.72;;;;;;;16.43;45.77;99579.64;1704576;82;21054;-58
2021/10/22 02:33:33;;;;;;;9.60;3.30;;;;;;;16.43;45.75;99586.28;1706902;81;21150;-58
2021/10/22 02:36:00;;;;;;;6.58;3.52;;;;;;;16.42;45.53;99601.88;1740481;80;21457;-58
2021/10/22 02:38:26;;;;;;;6.05;3.08;;;;;;;16.41;45.51;99600.25;1692013;83;21110;-58
2021/10/22 02:40:53;;;;;;;6.28;3.30;;;;;;;16.41;45.50;99600.73;1690271;82;21615;-58
2021/10/22 02:43:19;;;;;;;7.95;3.17;;;;;;;16.41;45.40;99607.37;1684361;81;21103;-58
2021/10/22 02:45:45;;;;;;;7.45;2.72;;;;;;;16.41;45.36;99608.69;1738598;80;21713;-59
2021/10/22 02:48:12;;;;;;;6.70;2.95;;;;;;;16.39;45.43;99610.70;1702219;82;21602;-58
2021/10/22 02:50:38;;;;;;;5.70;2.77;;;;;;;16.38;45.46;99613.88;1667074;82;21627;-58
2021/10/22 02:53:05;;;;;;;7.95;3.05;;;;;;;16.37;45.48;99615.38;1685156;82;21126;-59
2021/10/22 02:55:31;;;;;;;6.35;2.80;;;;;;;16.36;45.48;99614.56;1679275;81;22388;-58
2021/10/22 02:57:58;;;;;;;5.97;2.80;;;;;;;16.32;45.58;99627.37;1672702;83;22388;-58
2021/10/22 03:00:25;;;;;;;9.83;2.90;;;;;;;16.31;45.66;99616.94;1662695;84;21095;-58
2021/10/22 03:02:53;;;;;;;6.55;3.08;;;;;;;16.29;45.68;99628.20;1687539;82;22128;-58
2021/10/22 03:05:20;;;;;;;7.45;3.72;;;;;;;16.27;45.60;99632.88;1660637;83;21117;-57
2021/10/22 03:07:47;;;;;;;7.95;3.20;;;;;;;16.26;45.50;99643.19;1682240;83;21678;-56
2021/10/22 03:10:14;;;;;;;6.42;2.52;;;;;;;16.24;45.58;99638.05;1679083;82;21237;-58
2021/10/22 03:12:41;;;;;;;6.03;2.60;;;;;;;16.22;45.49;99639.22;1717409;80;21103;-59
2021/10/22 03:15:09;;;;;;;10.05;3.60;;;;;;;16.19;45.28;99642.23;1734554;80;21087;-59
2021/10/22 03:17:36;;;;;;;7.92;3.08;;;;;;;16.15;45.22;99640.44;1717187;80;21050;-58
2021/10/22 03:20:06;;;;;;;5.20;2.98;;;;;;;16.14;45.32;99637.47;1737548;80;21524;-58
2021/10/22 03:22:33;;;;;;;7.75;3.50;;;;;;;16.10;45.23;99644.94;1743016;80;21110;-57
2021/10/22 03:25:00;;;;;;;5.62;2.87;;;;;;;16.07;45.34;99641.81;1745470;80;21067;-57
2021/10/22 03:27:27;;;;;;;7.42;2.85;;;;;;;16.03;45.37;99645.33;1730989;80;21071;-58
2021/10/22 03:29:54;;;;;;;6.42;2.70;;;;;;;16.01;45.53;99650.50;1735110;80;21559;-58
2021/10/22 03:32:20;;;;;;;8.00;2.58;;;;;;;15.98;45.56;99652.99;1760881;80;21106;-58
2021/10/22 03:34:48;;;;;;;5.70;2.67;;;;;;;15.96;45.66;99657.66;1724413;80;21168;-58
2021/10/22 03:37:14;;;;;;;9.55;2.60;;;;;;;15.95;45.73;99661.30;1684873;82;21114;-57
2021/10/22 03:39:41;;;;;;;6.03;2.37;;;;;;;15.94;45.82;99658.34;1670793;83;21198;-58
2021/10/22 03:42:08;;;;;;;6.42;2.92;;;;;;;15.93;45.87;99654.02;1681977;82;21430;-57
2021/10/22 03:44:35;;;;;;;5.83;2.95;;;;;;;15.91;45.85;99660.01;1705902;81;21100;-56
2021/10/22 03:47:02;;;;;;;5.90;2.37;;;;;;;15.88;45.88;99672.29;1700078;81;21110;-57
2021/10/22 03:49:29;;;;;;;5.65;3.10;;;;;;;15.83;45.90;99672.80;1715147;81;21392;-56
2021/10/22 03:51:56;;;;;;;7.35;2.70;;;;;;;15.81;45.83;99676.65;1718487;81;21110;-57
2021/10/22 03:54:23;;;;;;;5.22;2.55;;;;;;;15.77;45.93;99682.30;1660270;83;21129;-57
2021/10/22 03:56:49;;;;;;;4.70;2.67;;;;;;;15.75;46.01;99677.67;1674433;82;21420;-58
2021/10/22 03:59:16;;;;;;;5.70;2.50;;;;;;;15.71;45.99;99676.31;1708997;81;21165;-57
2021/10/22 04:01:44;;;;;;;7.37;2.77;;;;;;;15.70;46.17;99686.63;1701112;81;21150;-57
2021/10/22 04:04:11;;;;;;;6.83;2.87;;;;;;;15.68;46.20;99684.62;1698025;82;20991;-57
2021/10/22 04:06:37;;;;;;;5.58;2.45;;;;;;;15.66;46.24;99689.27;1686464;82;21004;-57
2021/10/22 04:09:04;;;;;;;6.05;2.87;;;;;;;15.62;46.26;99690.63;1694256;82;21600;-57
2021/10/22 04:11:30;;;;;;;6.53;2.67;;;;;;;15.60;46.38;99692.61;1762171;78;21164;-60
2021/10/22 04:13:57;;;;;;;5.55;2.62;;;;;;;15.58;46.49;99695.94;1759210;79;21631;-57
2021/10/22 04:16:24;;;;;;;10.03;3.00;;;;;;;15.56;46.56;99709.88;1745346;80;21078;-57
2021/10/22 04:18:52;;;;;;;5.58;2.55;;;;;;;15.54;46.59;99707.90;1717448;80;21090;-57
2021/10/22 04:21:18;;;;;;;10.05;3.08;;;;;;;15.51;46.68;99700.28;1731361;80;21479;-57
2021/10/22 04:23:45;;;;;;;8.65;2.52;;;;;;;15.50;46.70;99703.92;1711315;81;22201;-58
2021/10/22 04:26:13;;;;;;;5.70;2.75;;;;;;;15.48;46.70;99705.41;1733150;80;21095;-57
2021/10/22 04:28:39;;;;;;;4.95;2.37;;;;;;;15.44;46.80;99705.44;1709413;80;21092;-58
2021/10/22 04:31:05;;;;;;;6.67;2.70;;;;;;;15.39;46.78;99707.27;1676834;82;21114;-58
2021/10/22 04:33:32;;;;;;;9.68;3.65;;;;;;;15.38;46.79;99720.69;1682967;82;21081;-58
2021/10/22 04:35:58;;;;;;;8.05;2.85;;;;;;;15.35;46.94;99720.55;1669025;82;21124;-58
2021/10/22 04:41:10;;;;;;;7.70;3.10;;;;;;;15.31;47.11;99723.20;1689212;81;21074;-58
2021/10/22 04:43:37;;;;;;;6.90;3.08;;;;;;;15.29;47.17;99722.55;1713334;80;21060;-58
2021/10/22 04:46:03;;;;;;;7.80;4.55;;;;;;;15.27;47.29;99724.55;1751486;79;21096;-58
2021/10/22 04:48:31;;;;;;;10.43;3.42;;;;;;;15.23;47.51;99728.03;1722230;80;22127;-58
2021/10/22 04:50:57;;;;;;;5.58;2.47;;;;;;;15.22;47.72;99738.80;1684600;82;21103;-58
2021/10/22 04:53:28;;;;;;;6.15;2.85;;;;;;;15.19;47.82;99741.28;1677742;82;21086;-57
2021/10/22 04:55:53;;;;;;;6.60;3.08;;;;;;;15.17;47.91;99752.55;1679774;82;21146;-57
2021/10/22 04:58:20;;;;;;;6.72;3.22;;;;;;;15.14;48.06;99750.23;1675087;82;21511;-58
2021/10/22 05:00:46;;;;;;;6.28;3.10;;;;;;;15.13;48.19;99759.20;1675764;83;21154;-58
2021/10/22 05:03:12;;;;;;;8.53;3.30;;;;;;;15.13;48.23;99767.63;1675001;83;21498;-58
2021/10/22 05:05:40;;;;;;;11.50;3.90;;;;;;;15.13;48.32;99770.27;1691979;82;21148;-58
2021/10/22 05:08:06;;;;;;;7.35;3.40;;;;;;;15.12;48.39;99775.27;1699573;82;21107;-58
2021/10/22 05:10:33;;;;;;;10.30;3.22;;;;;;;15.09;48.51;99783.53;1678219;82;21098;-57
2021/10/22 05:13:00;;;;;;;8.68;3.33;;;;;;;15.04;48.68;99783.52;1693249;82;21162;-57
2021/10/22 05:15:26;;;;;;;8.45;3.45;;;;;;;15.03;48.77;99794.31;1654069;83;21842;-57
2021/10/22 05:17:52;;;;;;;7.40;3.10;;;;;;;15.01;48.73;99794.48;1682334;82;21087;-57
2021/10/22 05:20:19;;;;;;;9.88;3.60;;;;;;;15.00;48.61;99801.27;1691184;82;21099;-56
2021/10/22 05:22:45;;;;;;;8.38;3.62;;;;;;;14.97;48.58;99802.41;1667600;83;21059;-59
2021/10/22 05:25:12;;;;;;;9.70;3.47;;;;;;;14.94;48.63;99802.73;1668623;82;22410;-58
2021/10/22 05:27:39;;;;;;;7.17;2.72;;;;;;;14.93;48.46;99813.02;1658944;83;21590;-58
2021/10/22 05:30:07;;;;;;;6.37;3.08;;;;;;;14.91;48.57;99807.06;1672090;83;21155;-58
2021/10/22 05:32:34;;;;;;;7.60;3.20;;;;;;;14.91;48.61;99812.84;1668756;83;21057;-58
2021/10/22 05:35:00;;;;;;;9.48;2.92;;;;;;;14.91;48.37;99802.24;1648610;84;22419;-58
2021/10/22 05:37:29;;;;;;;7.17;3.00;;;;;;;14.90;47.96;99805.91;1647310;83;21105;-58
2021/10/22 05:39:57;;;;;;;7.45;2.27;;;;;;;14.88;47.95;99815.81;1661021;82;21219;-58
2021/10/22 05:42:23;;;;;;;7.58;2.67;;;;;;;14.86;47.96;99826.09;1744621;80;21078;-60
2021/10/22 05:44:50;;;;;;;6.53;2.65;;;;;;;14.87;47.84;99836.18;1719590;80;21137;-59
2021/10/22 05:47:17;;;;;;;7.40;2.50;;;;;;;14.86;47.81;99833.19;1737762;80;21372;-58
2021/10/22 05:49:43;;;;;;;5.42;2.45;;;;;;;14.86;47.74;99845.11;1754631;79;21414;-57
2021/10/22 05:52:10;;;;;;;9.95;3.27;;;;;;;14.84;47.92;99846.63;1748086;79;21055;-58
2021/10/22 05:54:38;;;;;;;7.03;2.37;;;;;;;14.85;47.96;99847.45;1763778;79;21129;-59
2021/10/22 05:57:05;;;;;;;6.40;2.65;;;;;;;14.86;48.08;99843.78;1746725;79;21051;-58
2021/10/22 05:59:31;;;;;;;7.37;2.55;;;;;;;14.88;48.13;99850.25;1738215;78;21134;-58
2021/10/22 06:01:58;;;;;;;7.92;3.05;;;;;;;14.92;48.14;99855.06;1736886;79;22641;-58
2021/10/22 06:04:25;;;;;;;7.65;2.67;;;;;;;14.96;48.17;99863.03;1744545;79;21067;-58
2021/10/22 06:06:51;;;;;;;9.20;2.47;;;;;;;15.01;48.19;99866.02;1727122;80;21102;-58
2021/10/22 06:09:17;;;;;;;8.85;2.52;;;;;;;15.06;48.09;99856.22;1701518;81;21094;-58
2021/10/22 06:11:44;;;;;;;9.90;3.35;;;;;;;15.12;47.75;99860.05;1738277;80;21103;-58
2021/10/22 06:14:10;;;;;;;9.23;2.80;;;;;;;15.13;47.78;99865.66;1741319;80;21897;-57
2021/10/22 06:16:36;;;;;;;7.60;2.92;;;;;;;15.15;47.67;99860.55;1731174;80;21054;-57
2021/10/22 06:19:04;;;;;;;7.53;2.95;;;;;;;15.16;47.58;99864.87;1745886;80;21047;-58
2021/10/22 06:21:50;;;;;;;7.87;2.70;;;;;;;15.19;47.33;99865.83;1731375;80;21087;-58
2021/10/22 06:24:04;;;;;;;9.15;3.83;;;;;;;15.20;47.26;99856.91;1741990;80;21432;-60
2021/10/22 06:26:39;;;;;;;9.35;2.98;;;;;;;15.18;47.29;99851.42;1742714;80;21128;-58
2021/10/22 06:29:07;;;;;;;9.85;3.17;;;;;;;15.16;47.44;99852.09;1752286;80;21089;-57
2021/10/22 06:31:36;;;;;;;8.70;3.50;;;;;;;15.16;47.37;99857.39;1727433;80;21103;-58
2021/10/22 06:34:02;;;;;;;9.58;3.40;;;;;;;15.17;47.48;99864.36;1718814;81;21189;-58
2021/10/22 06:36:28;;;;;;;8.18;3.77;;;;;;;15.18;47.61;99862.02;1748025;80;21877;-55
2021/10/22 06:38:56;;;;;;;12.40;3.52;;;;;;;15.20;47.56;99870.66;1729658;79;21118;-57
2021/10/22 06:41:22;;;;;;;10.48;4.03;;;;;;;15.22;47.65;99873.97;1718606;80;21580;-58
2021/10/22 06:43:49;;;;;;;10.63;4.12;;;;;;;15.22;47.71;99874.78;1722080;81;21038;-58
2021/10/22 06:46:20;;;;;;;8.10;2.80;;;;;;;15.24;47.73;99867.99;1710972;81;21075;-59
2021/10/22 06:48:45;;;;;;;6.70;2.45;;;;;;;15.24;46.83;99870.65;1699278;82;21606;-57
2021/10/22 06:51:13;;;;;;;6.70;2.90;;;;;;;15.23;46.56;99867.66;1664963;82;21100;-58
2021/10/22 06:53:40;;;;;;;6.60;3.00;;;;;;;15.22;46.80;99873.97;1733342;80;21124;-58
2021/10/22 06:56:06;;;;;;;8.35;3.17;;;;;;;15.23;47.13;99874.28;1740344;79;21171;-58
2021/10/22 06:58:33;;;;;;;6.50;2.80;;;;;;;15.24;47.21;99876.77;1740497;80;21477;-58
2021/10/22 07:01:00;;;;;;;6.85;3.02;;;;;;;15.25;47.32;99874.97;1724216;80;21066;-58
2021/10/22 07:03:27;;;;;;;11.68;3.42;;;;;;;15.28;47.14;99879.09;1732390;80;21169;-57
2021/10/22 07:08:25;;;;;;;6.55;2.98;;;;;;;15.26;47.24;99875.28;1738957;79;21639;-57
2021/10/22 07:10:51;;;;;;;8.85;3.87;;;;;;;15.26;47.30;99879.76;1716308;80;21052;-59
2021/10/22 07:13:18;;;;;;;8.80;4.05;;;;;;;15.28;47.63;99883.06;1734119;80;21124;-57
2021/10/22 07:15:44;;;;;;;9.35;4.10;;;;;;;15.30;47.51;99874.45;1731276;80;21843;-57
2021/10/22 07:18:11;;;;;;;7.75;3.58;;;;;;;15.33;47.75;99882.06;1737863;79;21359;-58
2021/10/22 07:20:38;;;;;;;9.08;5.60;;;;;;;15.39;47.59;99892.02;1716098;80;21987;-57
2021/10/22 07:25:33;;;;;;;16.12;3.98;;;;;;;15.52;47.35;99884.90;1734067;79;21044;-57
2021/10/22 07:28:07;;;;;;;5.97;3.12;;;;;;;15.57;47.58;99882.57;1754704;80;21899;-56
2021/10/22 07:30:28;;;;;;;7.90;3.40;;;;;;;15.63;47.61;99887.19;1730237;80;21014;-60
2021/10/22 07:32:55;;;;;;;8.28;3.90;;;;;;;15.69;47.56;99885.20;1772790;80;21059;-58
2021/10/22 07:35:21;;;;;;;5.83;3.33;;;;;;;15.79;47.17;99877.09;1736450;80;21015;-57
2021/10/22 07:37:49;;;;;;;7.25;3.33;;;;;;;15.87;46.52;99886.84;1750050;79;21058;-57
2021/10/22 07:40:16;;;;;;;9.58;3.47;;;;;;;15.95;46.05;99885.50;1724221;80;22087;-58
2021/10/22 07:42:42;;;;;;;7.83;3.95;;;;;;;16.02;45.19;99889.63;1748227;80;21154;-57
2021/10/22 07:45:09;;;;;;;11.12;3.22;;;;;;;16.09;44.50;99897.26;1740173;79;20976;-58
2021/10/22 07:47:37;;;;;;;15.32;3.72;;;;;;;16.11;42.68;99913.32;1721560;80;21031;-57
2021/10/22 07:50:08;;;;;;;10.68;3.10;;;;;;;16.16;43.06;99904.34;1744841;80;22068;-58
2021/10/22 07:52:35;;;;;;;7.97;2.35;;;;;;;16.21;41.80;99892.41;1767827;79;21228;-58
2021/10/22 07:55:03;;;;;;;5.95;1.70;;;;;;;16.25;40.54;99902.48;1763998;80;21011;-58
2021/10/22 07:57:30;;;;;;;6.33;1.70;;;;;;;16.30;39.90;99900.66;1747537;80;21049;-58
2021/10/22 07:59:57;;;;;;;11.55;1.72;;;;;;;16.35;38.19;99911.08;1732297;80;21056;-57
2021/10/22 08:02:23;;;;;;;5.53;1.47;;;;;;;16.40;38.09;99919.86;1698667;80;21022;-58
2021/10/22 08:04:50;;;;;;;5.65;1.80;;;;;;;16.45;38.37;99913.53;1749524;80;22376;-57
2021/10/22 08:07:29;;;;;;;8.93;1.87;;;;;;;16.50;37.94;99912.52;1766765;80;21071;-57
2021/10/22 08:09:52;;;;;;;5.92;1.70;;;;;;;16.53;37.49;99890.92;1752107;79;21918;-59
2021/10/22 08:12:20;;;;;;;9.18;2.00;;;;;;;16.57;37.82;99940.53;1730025;80;21059;-60
2021/10/22 08:14:47;;;;;;;4.85;1.10;;;;;;;16.60;36.91;99919.45;1747946;79;22138;-57
2021/10/22 08:17:16;;;;;;;4.45;1.62;;;;;;;16.57;35.27;99917.95;1728304;80;21224;-58
2021/10/22 08:19:51;;;;;;;4.40;1.47;;;;;;;16.58;36.23;99905.02;1743904;80;21058;-55
2021/10/22 08:22:25;;;;;;;15.15;2.12;;;;;;;16.61;36.20;99911.31;1704568;83;21119;-57
2021/10/22 08:25:04;;;;;;;10.50;1.92;;;;;;;16.66;35.90;99908.11;1677595;83;21075;-57
2021/10/22 08:27:39;;;;;;;12.18;1.90;;;;;;;16.76;34.84;99926.50;1738593;80;21090;-58
2021/10/22 08:30:10;;;;;;;6.55;1.65;;;;;;;16.78;33.11;99933.78;1736947;79;21215;-58
2021/10/22 08:32:37;;;;;;;6.67;1.17;;;;;;;16.72;32.69;99979.97;1730256;80;21353;-58
2021/10/22 08:35:07;;;;;;;9.10;1.15;;;;;;;16.69;33.34;99923.71;1731805;80;21576;-58
2021/10/22 08:37:39;;;;;;;4.92;1.67;;;;;;;16.67;33.38;99927.87;1737541;80;20988;-59
2021/10/22 08:40:06;;;;;;;4.67;1.17;;;;;;;16.69;33.91;99930.35;1732806;80;21044;-58
2021/10/22 08:42:33;;;;;;;3.80;1.37;;;;;;;16.70;34.08;99946.63;1706568;80;21125;-59
2021/10/22 08:45:00;;;;;;;5.53;1.50;;;;;;;16.72;33.43;99931.34;1748936;80;20992;-60
2021/10/22 08:47:30;;;;;;;4.67;1.20;;;;;;;16.72;33.63;99948.09;1739810;80;20960;-59
2021/10/22 08:50:01;;;;;;;3.87;1.00;;;;;;;16.68;33.79;99957.94;1722405;80;21000;-58
2021/10/22 08:52:29;;;;;;;4.22;1.10;;;;;;;16.67;33.70;99945.64;1697496;81;21104;-58
2021/10/22 08:54:57;;;;;;;5.95;1.25;;;;;;;16.67;33.68;99952.28;1729887;80;22979;-58
2021/10/22 08:57:23;;;;;;;3.12;0.95;;;;;;;16.66;33.82;99979.84;1713865;80;21087;-57
2021/10/22 08:59:52;;;;;;;5.10;1.40;;;;;;;16.67;33.68;99933.69;1704057;81;21604;-58
2021/10/22 09:02:24;;;;;;;4.10;1.30;;;;;;;16.70;34.04;99959.91;1705467;80;21707;-59
2021/10/22 09:04:51;;;;;;;5.05;1.10;;;;;;;16.72;33.58;99941.97;1755844;80;21127;-58
2021/10/22 09:07:20;;;;;;;4.25;1.30;;;;;;;16.74;33.95;99935.97;1724155;80;21061;-59
2021/10/22 09:09:49;;;;;;;5.95;1.35;;;;;;;16.78;33.68;99946.59;1742370;79;21622;-60
2021/10/22 09:12:15;;;;;;;18.25;2.17;;;;;;;16.83;33.60;99936.78;1708949;81;21437;-57
2021/10/22 09:14:59;;;;;;;5.85;1.15;;;;;;;16.82;33.30;99928.47;1735886;80;21224;-61
2021/10/22 09:17:37;;;;;;;4.45;1.02;;;;;;;16.85;33.91;99938.27;1732585;80;21031;-57
2021/10/22 09:20:06;;;;;;;6.33;1.00;;;;;;;16.92;33.80;99930.43;1713122;80;22104;-58
2021/10/22 09:22:33;;;;;;;7.12;1.27;;;;;;;17.00;33.86;99942.34;1753054;79;21109;-59
2021/10/22 09:25:05;;;;;;;4.35;1.32;;;;;;;17.11;33.16;99939.77;1739247;80;21097;-58
2021/10/22 09:27:44;;;;;;;6.67;1.32;;;;;;;17.15;33.25;99930.45;1726037;79;21047;-58
2021/10/22 09:30:32;;;;;;;12.03;1.75;;;;;;;17.16;33.46;99937.41;1735359;80;21113;-57
2021/10/22 09:33:00;;;;;;;5.40;0.95;;;;;;;17.15;33.26;99934.45;1733257;80;21819;-57
2021/10/22 09:35:54;;;;;;;10.13;1.90;;;;;;;17.09;33.41;99939.13;1726730;80;21166;-58
2021/10/22 09:38:29;;;;;;;5.30;1.50;;;;;;;17.07;33.48;99940.63;1751996;79;21002;-57
2021/10/22 09:41:06;;;;;;;4.12;1.52;;;;;;;17.08;34.01;99938.82;1738380;79;21183;-59
2021/10/22 09:43:36;;;;;;;5.78;1.47;;;;;;;17.11;33.88;99947.75;1732577;80;21839;-58
2021/10/22 09:46:16;;;;;;;5.10;1.07;;;;;;;17.11;33.97;99947.75;1728907;80;21288;-57
2021/10/22 09:48:45;;;;;;;6.72;1.67;;;;;;;17.12;34.31;99961.38;1745641;79;21123;-59
2021/10/22 09:51:33;;;;;;;5.42;1.65;;;;;;;17.16;34.12;99944.06;1730577;79;21777;-57
2021/10/22 09:54:05;;;;;;;12.43;2.55;;;;;;;17.19;33.96;99943.70;1739970;80;21054;-58
2021/10/22 09:56:32;;;;;;;3.27;1.25;;;;;;;17.22;34.18;99950.01;1741540;80;20996;-57
2021/10/22 09:59:05;;;;;;;5.95;1.30;;;;;;;17.27;34.15;99974.23;1733007;80;22390;-58
2021/10/22 10:01:38;;;;;;;4.67;1.50;;;;;;;17.33;33.85;99952.77;1738608;79;21563;-58
2021/10/22 10:04:07;;;;;;;4.97;1.60;;;;;;;17.39;34.39;99957.88;1731229;79;21133;-58
2021/10/22 10:06:35;;;;;;;8.20;1.80;;;;;;;17.45;33.73;99958.50;1745325;79;21546;-59
2021/10/22 10:09:03;;;;;;;5.40;1.30;;;;;;;17.43;33.67;99966.66;1693286;82;21201;-59
2021/10/22 10:11:31;;;;;;;4.22;1.27;;;;;;;17.40;33.74;99971.48;1664458;83;22444;-59
2021/10/22 10:13:59;;;;;;;7.20;1.67;;;;;;;17.35;33.71;99961.88;1640847;84;21095;-60
2021/10/22 10:16:27;;;;;;;6.97;1.52;;;;;;;17.37;33.94;99959.89;1743063;80;21032;-58
2021/10/22 10:19:06;;;;;;;8.28;1.50;;;;;;;17.40;33.76;99945.73;1713890;81;21053;-59
2021/10/22 10:21:37;;;;;;;5.03;1.50;;;;;;;17.42;33.77;99949.55;1690466;82;22198;-58
2021/10/22 10:24:04;;;;;;;6.78;1.20;;;;;;;17.44;33.78;99947.53;1726003;79;21130;-58
2021/10/22 10:26:33;;;;;;;7.17;1.30;;;;;;;17.45;33.90;99938.05;1727462;79;21022;-58
2021/10/22 10:29:04;;;;;;;3.58;1.32;;;;;;;17.51;34.25;99931.17;1728859;80;20968;-59
2021/10/22 10:31:41;;;;;;;6.00;1.20;;;;;;;17.61;33.64;99946.38;1675804;82;20979;-59
2021/10/22 10:34:38;;;;;;;4.17;1.57;;;;;;;17.69;33.53;99946.83;1696467;82;21044;-59
2021/10/22 10:37:25;;;;;;;5.70;1.37;;;;;;;17.75;33.87;99946.59;1670763;83;21140;-59
2021/10/22 10:40:03;;;;;;;5.37;1.35;;;;;;;17.77;33.28;99959.20;1674114;81;21008;-59
2021/10/22 10:42:43;;;;;;;8.60;1.37;;;;;;;17.74;33.39;99955.61;1695768;81;21031;-58
2021/10/22 10:45:28;;;;;;;4.78;1.52;;;;;;;17.69;33.81;99969.44;1663214;83;21538;-58
2021/10/22 10:48:06;;;;;;;5.55;1.57;;;;;;;17.71;33.72;99974.59;1687937;83;21082;-58
2021/10/22 10:50:50;;;;;;;9.80;1.87;;;;;;;17.73;33.16;99955.27;1660195;83;21830;-57
2021/10/22 10:53:20;;;;;;;5.80;1.30;;;;;;;17.73;32.60;99963.25;1679300;82;21070;-59
2021/10/22 10:55:48;;;;;;;5.12;1.05;;;;;;;17.74;32.70;99976.89;1678676;83;21037;-58
2021/10/22 10:58:19;;;;;;;7.40;1.25;;;;;;;17.66;32.68;99966.31;1688166;83;21056;-59
2021/10/22 11:00:51;;;;;;;5.55;1.30;;;;;;;17.60;32.66;99970.50;1687216;82;21127;-58
2021/10/22 11:03:26;;;;;;;2.77;1.00;;;;;;;17.55;32.86;99956.42;1685255;82;21221;-59
2021/10/22 11:05:57;;;;;;;4.47;1.22;;;;;;;17.58;32.68;99972.00;1687476;82;21032;-59
2021/10/22 11:08:28;;;;;;;4.65;1.10;;;;;;;17.62;32.76;99950.70;1689287;82;21081;-58
2021/10/22 11:11:41;;;;;;;5.62;1.10;;;;;;;17.67;32.18;99948.84;1687593;83;21122;-58
2021/10/22 11:14:08;;;;;;;4.33;1.00;;;;;;;17.68;31.62;99970.44;1733586;80;21106;-59
2021/10/22 11:16:41;;;;;;;6.80;1.50;;;;;;;17.73;31.56;99966.73;1710325;80;21107;-59
2021/10/22 11:19:20;;;;;;;6.67;1.05;;;;;;;17.75;31.44;99955.91;1728866;80;21568;-58
2021/10/22 11:21:54;;;;;;;7.58;1.37;;;;;;;17.79;31.41;99953.23;1744884;80;21089;-57
2021/10/22 11:24:30;;;;;;;5.95;1.20;;;;;;;17.87;31.35;99962.98;1683555;82;21063;-59
2021/10/22 11:27:12;;;;;;;4.97;1.25;;;;;;;17.94;31.12;99962.61;1675160;82;21183;-58
2021/10/22 11:29:41;;;;;;;5.87;0.90;;;;;;;17.95;31.07;99994.34;1748889;80;21166;-58
2021/10/22 11:32:13;;;;;;;12.60;1.45;;;;;;;17.91;31.15;99957.13;1735791;80;21035;-59
2021/10/22 11:34:54;;;;;;;6.40;1.20;;;;;;;17.90;31.37;99962.63;1742614;80;21050;-59
2021/10/22 11:37:23;;;;;;;11.12;1.55;;;;;;;17.88;31.25;99976.11;1740450;80;21062;-58
2021/10/22 11:39:52;;;;;;;3.90;1.10;;;;;;;17.88;31.64;99958.00;1754655;79;21085;-59
2021/10/22 11:42:30;;;;;;;4.00;1.00;;;;;;;17.93;31.83;99985.71;1738669;79;21292;-59
2021/10/22 11:45:05;;;;;;;2.98;1.02;;;;;;;18.02;31.32;99966.48;1740189;79;21022;-59
2021/10/22 11:47:44;;;;;;;5.33;1.52;;;;;;;18.08;31.34;99981.75;1745316;80;21740;-59
2021/10/22 11:50:35;;;;;;;5.40;1.70;;;;;;;18.14;31.45;99966.88;1733455;80;21091;-59
2021/10/22 11:53:14;;;;;;;8.70;1.52;;;;;;;18.18;31.67;99955.68;1753797;80;21068;-58
2021/10/22 11:56:02;;;;;;;7.30;1.35;;;;;;;18.28;31.73;99971.39;1756010;79;21748;-59